createdAt,value
2023-05-02T00:00:02.205Z,99.00
2023-05-02T00:02:30.074Z,99.10
2023-05-02T00:04:57.367Z,99.20
2023-05-02T00:07:24.468Z,99.40
2023-05-02T00:09:51.921Z,99.60
2023-05-02T00:12:19.240Z,99.70
2023-05-02T00:14:46.295Z,99.80
2023-05-02T00:17:20.973Z,99.90
2023-05-02T00:19:48.445Z,99.90
2023-05-02T00:22:15.850Z,99.90
2023-05-02T00:24:43.066Z,99.90
2023-05-02T00:27:10.214Z,99.90
2023-05-02T00:29:37.784Z,99.90
2023-05-02T00:32:06.345Z,99.90
2023-05-02T00:34:33.733Z,99.90
2023-05-02T00:37:01.023Z,99.90
2023-05-02T00:39:28.391Z,99.90
2023-05-02T00:42:02.271Z,99.90
2023-05-02T00:44:29.754Z,99.90
2023-05-02T00:46:57.799Z,99.90
2023-05-02T00:49:27.261Z,99.90
2023-05-02T00:51:55.071Z,99.90
2023-05-02T00:54:22.445Z,99.90
2023-05-02T00:56:49.890Z,99.90
2023-05-02T00:59:18.471Z,99.90
2023-05-02T01:02:01.112Z,99.90
2023-05-02T01:04:54.794Z,99.90
2023-05-02T01:07:51.875Z,99.90
2023-05-02T01:10:45.758Z,99.90
2023-05-02T01:13:19.759Z,99.90
2023-05-02T01:15:49.031Z,99.90
2023-05-02T01:18:18.921Z,99.90
2023-05-02T01:20:48.602Z,99.90
2023-05-02T01:23:31.238Z,99.90
2023-05-02T01:26:07.584Z,99.90
2023-05-02T01:28:57.336Z,99.90
2023-05-02T01:31:28.213Z,99.90
2023-05-02T01:33:57.200Z,99.90
2023-05-02T01:36:27.679Z,99.90
2023-05-02T01:38:57.069Z,99.90
2023-05-02T01:41:29.281Z,99.90
2023-05-02T01:44:02.594Z,99.90
2023-05-02T01:46:35.261Z,99.90
2023-05-02T01:49:06.216Z,99.90
2023-05-02T01:51:35.852Z,99.90
2023-05-02T01:54:08.419Z,99.90
2023-05-02T01:56:38.363Z,99.90
2023-05-02T01:59:09.350Z,99.90
2023-05-02T02:01:39.538Z,99.90
2023-05-02T02:04:10.587Z,99.90
2023-05-02T02:06:38.202Z,99.90
2023-05-02T02:09:06.414Z,99.90
2023-05-02T02:11:44.471Z,99.90
2023-05-02T02:14:41.681Z,99.90
2023-05-02T02:17:28.450Z,99.90
2023-05-02T02:19:57.829Z,99.90
2023-05-02T02:22:28.092Z,99.90
2023-05-02T02:24:55.718Z,99.90
2023-05-02T02:27:23.137Z,99.90
2023-05-02T02:29:50.612Z,99.90
2023-05-02T02:32:17.833Z,99.90
2023-05-02T02:34:45.483Z,99.90
2023-05-02T02:37:22.663Z,99.90
2023-05-02T02:40:14.429Z,99.90
2023-05-02T02:42:44.690Z,99.90
2023-05-02T02:45:35.639Z,99.90
2023-05-02T02:48:28.218Z,99.90
2023-05-02T02:51:09.718Z,99.90
2023-05-02T02:53:58.979Z,99.90
2023-05-02T02:56:47.972Z,99.90
2023-05-02T02:59:21.096Z,99.90
2023-05-02T03:02:04.268Z,99.90
2023-05-02T03:04:33.424Z,99.90
2023-05-02T03:07:01.947Z,99.90
2023-05-02T03:09:33.947Z,99.90
2023-05-02T03:12:01.853Z,99.90
2023-05-02T03:14:29.151Z,99.90
2023-05-02T03:16:57.246Z,99.90
2023-05-02T03:19:24.348Z,99.90
2023-05-02T03:21:51.929Z,99.90
2023-05-02T03:24:19.577Z,99.90
2023-05-02T03:26:47.904Z,99.90
2023-05-02T03:29:16.646Z,99.90
2023-05-02T03:31:43.949Z,99.90
2023-05-02T03:34:11.622Z,99.90
2023-05-02T03:36:38.794Z,99.90
2023-05-02T03:39:07.070Z,99.90
2023-05-02T03:41:34.328Z,99.90
2023-05-02T03:44:01.496Z,99.90
2023-05-02T03:46:28.887Z,99.90
2023-05-02T03:48:58.393Z,99.90
2023-05-02T03:51:27.535Z,99.90
2023-05-02T03:53:55.002Z,99.90
2023-05-02T03:56:22.457Z,99.90
2023-05-02T03:58:50.102Z,99.90
2023-05-02T04:01:17.860Z,99.90
2023-05-02T04:03:45.511Z,99.90
2023-05-02T04:06:13.567Z,99.90
2023-05-02T04:08:40.979Z,99.90
2023-05-02T04:11:08.256Z,99.90
2023-05-02T04:13:35.830Z,99.90
2023-05-02T04:16:14.958Z,99.90
2023-05-02T04:18:42.504Z,99.90
2023-05-02T04:21:11.609Z,99.90
2023-05-02T04:23:43.996Z,99.90
2023-05-02T04:26:12.248Z,99.90
2023-05-02T04:28:46.911Z,99.90
2023-05-02T04:31:21.700Z,99.90
2023-05-02T04:33:51.692Z,99.90
2023-05-02T04:36:19.588Z,99.90
2023-05-02T04:38:54.563Z,99.90
2023-05-02T04:41:24.872Z,99.90
2023-05-02T04:43:52.506Z,99.90
2023-05-02T04:46:20.019Z,99.90
2023-05-02T04:48:49.783Z,99.90
2023-05-02T04:51:18.173Z,99.90
2023-05-02T04:53:47.951Z,99.90
2023-05-02T04:56:15.228Z,99.90
2023-05-02T04:58:42.445Z,99.90
2023-05-02T05:01:09.762Z,99.90
2023-05-02T05:03:37.517Z,99.90
2023-05-02T05:06:05.540Z,99.90
2023-05-02T05:08:33.130Z,99.90
2023-05-02T05:11:00.466Z,99.90
2023-05-02T05:13:30.657Z,99.90
2023-05-02T05:15:58.074Z,99.90
2023-05-02T05:18:25.608Z,99.90
2023-05-02T05:20:58.714Z,99.90
2023-05-02T05:23:26.148Z,99.90
2023-05-02T05:25:58.511Z,99.90
2023-05-02T05:28:29.003Z,99.90
2023-05-02T05:30:56.572Z,99.90
2023-05-02T05:33:24.042Z,99.90
2023-05-02T05:35:54.119Z,99.90
2023-05-02T05:38:21.530Z,99.90
2023-05-02T05:41:02.243Z,99.90
2023-05-02T05:43:44.572Z,99.90
2023-05-02T05:46:12.066Z,99.90
2023-05-02T05:49:43.799Z,99.90
2023-05-02T05:52:11.349Z,99.90
2023-05-02T05:54:41.774Z,99.90
2023-05-02T05:57:11.606Z,99.90
2023-05-02T06:00:18.784Z,99.90
2023-05-02T06:02:47.036Z,99.90
2023-05-02T06:05:15.344Z,99.90
2023-05-02T06:07:42.611Z,99.90
2023-05-02T06:10:10.600Z,99.90
2023-05-02T06:12:37.921Z,99.90
2023-05-02T06:15:05.700Z,99.90
2023-05-02T06:17:32.904Z,99.90
2023-05-02T06:20:00.604Z,99.90
2023-05-02T06:22:27.913Z,99.90
2023-05-02T06:24:55.026Z,99.90
2023-05-02T06:27:23.734Z,99.90
2023-05-02T06:29:54.477Z,99.90
2023-05-02T06:32:22.035Z,99.90
2023-05-02T06:34:49.334Z,99.90
2023-05-02T06:37:16.538Z,99.90
2023-05-02T06:39:43.797Z,99.90
2023-05-02T06:42:11.127Z,99.90
2023-05-02T06:44:38.423Z,99.90
2023-05-02T06:47:07.099Z,99.90
2023-05-02T06:49:34.558Z,99.90
2023-05-02T06:52:01.642Z,99.90
2023-05-02T06:54:29.082Z,99.90
2023-05-02T06:56:56.257Z,99.90
2023-05-02T06:59:23.641Z,99.90
2023-05-02T07:01:51.671Z,99.90
2023-05-02T07:04:19.114Z,99.90
2023-05-02T07:06:47.325Z,99.90
2023-05-02T07:09:14.349Z,99.90
2023-05-02T07:11:41.677Z,99.90
2023-05-02T07:14:08.875Z,99.90
2023-05-02T07:16:36.453Z,99.90
2023-05-02T07:19:04.897Z,99.90
2023-05-02T07:21:32.712Z,99.90
2023-05-02T07:23:59.939Z,99.90
2023-05-02T07:26:28.291Z,99.90
2023-05-02T07:28:55.701Z,99.90
2023-05-02T07:31:23.067Z,99.90
2023-05-02T07:33:50.483Z,99.90
2023-05-02T07:36:18.697Z,99.90
2023-05-02T07:38:46.193Z,99.90
2023-05-02T07:41:17.499Z,99.90
2023-05-02T07:43:44.637Z,99.90
2023-05-02T07:46:12.863Z,99.90
2023-05-02T07:48:40.156Z,99.90
2023-05-02T07:51:08.571Z,99.90
2023-05-02T07:53:35.981Z,99.90
2023-05-02T07:56:07.007Z,99.90
2023-05-02T07:58:35.294Z,99.90
2023-05-02T08:01:03.860Z,99.90
2023-05-02T08:03:31.681Z,99.90
2023-05-02T08:05:59.120Z,99.90
2023-05-02T08:08:26.546Z,99.90
2023-05-02T08:10:53.729Z,99.90
2023-05-02T08:13:21.283Z,99.90
2023-05-02T08:15:48.476Z,99.90
2023-05-02T08:18:16.141Z,99.90
2023-05-02T08:20:44.025Z,99.90
2023-05-02T08:23:11.226Z,99.90
2023-05-02T08:25:38.474Z,99.90
2023-05-02T08:28:05.747Z,99.90
2023-05-02T08:30:33.102Z,99.90
2023-05-02T08:33:00.374Z,99.90
2023-05-02T08:35:30.309Z,99.90
2023-05-02T08:37:57.485Z,99.90
2023-05-02T08:40:38.266Z,99.90
2023-05-02T08:43:11.356Z,99.90
2023-05-02T08:45:43.573Z,99.90
2023-05-02T08:48:13.609Z,99.90
2023-05-02T08:50:43.700Z,99.90
2023-05-02T08:53:12.835Z,99.90
2023-05-02T08:55:41.121Z,99.90
2023-05-02T08:58:09.874Z,99.90
2023-05-02T09:00:41.326Z,99.90
2023-05-02T09:03:34.185Z,99.90
2023-05-02T09:06:10.052Z,99.90
2023-05-02T09:08:37.927Z,99.90
2023-05-02T09:11:05.837Z,99.90
2023-05-02T09:13:38.174Z,99.90
2023-05-02T09:16:10.686Z,99.90
2023-05-02T09:18:40.944Z,99.90
2023-05-02T09:21:13.674Z,99.90
2023-05-02T09:23:45.843Z,99.90
2023-05-02T09:26:29.492Z,99.90
2023-05-02T09:28:58.260Z,99.90
2023-05-02T09:31:49.753Z,99.90
2023-05-02T09:34:17.561Z,99.90
2023-05-02T09:36:54.731Z,99.90
2023-05-02T09:39:32.172Z,99.90
2023-05-02T09:42:00.102Z,99.90
2023-05-02T09:44:36.686Z,99.90
2023-05-02T09:47:03.989Z,99.90
2023-05-02T09:49:45.382Z,99.90
2023-05-02T09:52:13.087Z,99.90
2023-05-02T09:54:40.608Z,99.90
2023-05-02T09:57:08.069Z,99.90
2023-05-02T09:59:35.309Z,99.90
2023-05-02T10:02:05.675Z,99.90
2023-05-02T10:04:36.520Z,99.90
2023-05-02T10:07:04.011Z,99.90
2023-05-02T10:09:33.001Z,99.90
2023-05-02T10:12:07.166Z,99.90
2023-05-02T10:14:41.615Z,99.90
2023-05-02T10:17:13.536Z,99.90
2023-05-02T10:19:57.852Z,99.90
2023-05-02T10:22:26.138Z,99.90
2023-05-02T10:24:54.120Z,99.90
2023-05-02T10:27:22.400Z,99.70
2023-05-02T10:29:51.548Z,99.10
2023-05-02T10:32:19.365Z,98.40
2023-05-02T10:34:48.115Z,97.90
2023-05-02T10:37:17.089Z,97.50
2023-05-02T10:39:44.522Z,97.10
2023-05-02T10:42:11.807Z,97.10
2023-05-02T10:44:41.448Z,96.80
2023-05-02T10:47:25.629Z,96.50
2023-05-02T10:49:56.398Z,96.30
2023-05-02T10:52:41.817Z,96.10
2023-05-02T10:55:18.040Z,95.90
2023-05-02T10:58:06.569Z,95.70
2023-05-02T11:00:35.016Z,96.20
2023-05-02T11:03:02.883Z,95.90
2023-05-02T11:05:30.672Z,95.40
2023-05-02T11:08:17.976Z,95.00
2023-05-02T11:10:47.550Z,95.00
2023-05-02T11:13:14.797Z,94.90
2023-05-02T11:15:42.248Z,94.80
2023-05-02T11:18:13.199Z,95.00
2023-05-02T11:20:43.012Z,95.20
2023-05-02T11:23:16.541Z,95.40
2023-05-02T11:25:46.862Z,95.00
2023-05-02T11:28:43.806Z,94.50
2023-05-02T11:31:31.281Z,93.90
2023-05-02T11:34:01.488Z,93.20
2023-05-02T11:36:36.156Z,93.40
2023-05-02T11:39:06.073Z,93.40
2023-05-02T11:41:43.155Z,93.10
2023-05-02T11:44:11.042Z,93.20
2023-05-02T11:46:39.556Z,93.00
2023-05-02T11:49:09.712Z,92.80
2023-05-02T11:51:37.796Z,92.70
2023-05-02T11:54:08.062Z,93.10
2023-05-02T11:56:35.377Z,93.30
2023-05-02T11:59:04.484Z,93.30
2023-05-02T12:01:31.942Z,93.20
2023-05-02T12:04:10.675Z,92.80
2023-05-02T12:06:38.128Z,92.00
2023-05-02T12:09:17.458Z,91.90
2023-05-02T12:11:45.106Z,92.10
2023-05-02T12:14:14.578Z,92.50
2023-05-02T12:16:42.515Z,92.60
2023-05-02T12:19:10.410Z,91.90
2023-05-02T12:21:37.621Z,91.30
2023-05-02T12:24:05.354Z,90.80
2023-05-02T12:26:33.950Z,90.30
2023-05-02T12:29:03.038Z,89.60
2023-05-02T12:31:32.491Z,89.40
2023-05-02T12:34:01.512Z,89.40
2023-05-02T12:36:29.083Z,88.90
2023-05-02T12:39:01.924Z,88.50
2023-05-02T12:41:37.718Z,88.00
2023-05-02T12:44:06.541Z,88.00
2023-05-02T12:46:34.114Z,88.60
2023-05-02T12:49:06.442Z,89.10
2023-05-02T12:51:34.968Z,89.10
2023-05-02T12:54:02.999Z,89.50
2023-05-02T12:56:32.978Z,90.20
2023-05-02T12:59:01.808Z,90.50
2023-05-02T13:01:29.664Z,90.50
2023-05-02T13:03:59.891Z,90.30
2023-05-02T13:06:27.847Z,90.30
2023-05-02T13:08:55.224Z,90.70
2023-05-02T13:11:22.627Z,90.80
2023-05-02T13:13:49.986Z,90.60
2023-05-02T13:16:20.099Z,90.70
2023-05-02T13:18:48.118Z,90.40
2023-05-02T13:21:15.502Z,90.30
2023-05-02T13:23:44.652Z,90.30
2023-05-02T13:26:12.073Z,90.20
2023-05-02T13:28:41.925Z,90.10
2023-05-02T13:31:09.295Z,90.20
2023-05-02T13:33:36.649Z,90.20
2023-05-02T13:36:04.089Z,90.40
2023-05-02T13:38:31.527Z,90.80
2023-05-02T13:40:58.797Z,90.90
2023-05-02T13:43:26.138Z,90.90
2023-05-02T13:45:53.265Z,91.00
2023-05-02T13:48:20.906Z,91.00
2023-05-02T13:50:47.989Z,91.10
2023-05-02T13:53:15.285Z,91.10
2023-05-02T13:55:42.446Z,91.10
2023-05-02T13:58:09.697Z,91.00
2023-05-02T14:00:37.453Z,91.10
2023-05-02T14:03:05.448Z,91.30
2023-05-02T14:05:33.080Z,91.30
2023-05-02T14:08:00.370Z,91.30
2023-05-02T14:10:27.549Z,91.50
2023-05-02T14:12:56.623Z,91.50
2023-05-02T14:15:24.250Z,91.40
2023-05-02T14:17:51.459Z,91.40
2023-05-02T14:20:18.725Z,91.50
2023-05-02T14:22:45.925Z,91.50
2023-05-02T14:25:14.302Z,91.60
2023-05-02T14:27:42.467Z,91.20
2023-05-02T14:30:10.172Z,91.30
2023-05-02T14:32:37.299Z,91.10
2023-05-02T14:35:04.634Z,91.00
2023-05-02T14:37:31.982Z,90.80
2023-05-02T14:40:01.830Z,90.80
2023-05-02T14:42:29.123Z,90.70
2023-05-02T14:44:58.783Z,90.70
2023-05-02T14:47:30.564Z,90.60
2023-05-02T14:49:57.906Z,90.50
2023-05-02T14:52:25.416Z,90.50
2023-05-02T14:54:53.574Z,90.30
2023-05-02T14:57:21.036Z,90.00
2023-05-02T14:59:48.662Z,89.30
2023-05-02T15:02:19.272Z,88.90
2023-05-02T15:04:46.963Z,88.90
2023-05-02T15:07:14.317Z,88.50
2023-05-02T15:09:41.926Z,88.60
2023-05-02T15:12:12.381Z,89.10
2023-05-02T15:14:39.736Z,90.10
2023-05-02T15:17:10.130Z,89.70
2023-05-02T15:19:37.442Z,89.50
2023-05-02T15:22:04.645Z,89.10
2023-05-02T15:24:32.102Z,89.50
2023-05-02T15:26:59.350Z,88.60
2023-05-02T15:29:26.593Z,88.90
2023-05-02T15:31:55.066Z,88.80
2023-05-02T15:34:22.187Z,88.40
2023-05-02T15:36:49.438Z,88.90
2023-05-02T15:39:16.730Z,89.50
2023-05-02T15:41:46.797Z,89.90
2023-05-02T15:44:14.392Z,90.00
2023-05-02T15:46:46.879Z,89.90
2023-05-02T15:49:14.457Z,90.00
2023-05-02T15:51:42.999Z,90.30
2023-05-02T15:54:10.547Z,90.30
2023-05-02T15:56:38.195Z,90.20
2023-05-02T15:59:05.393Z,90.30
2023-05-02T16:01:32.608Z,90.40
2023-05-02T16:04:00.185Z,90.40
2023-05-02T16:06:27.937Z,90.50
2023-05-02T16:08:55.851Z,90.60
2023-05-02T16:11:23.086Z,90.50
2023-05-02T16:13:50.262Z,90.50
2023-05-02T16:16:17.553Z,90.50
2023-05-02T16:18:44.915Z,90.60
2023-05-02T16:21:12.218Z,90.70
2023-05-02T16:23:42.442Z,90.90
2023-05-02T16:26:10.439Z,91.10
2023-05-02T16:28:37.683Z,91.30
2023-05-02T16:31:11.407Z,91.30
2023-05-02T16:33:39.625Z,91.30
2023-05-02T16:36:07.267Z,91.10
2023-05-02T16:38:36.575Z,91.30
2023-05-02T16:41:05.923Z,91.20
2023-05-02T16:43:33.658Z,90.80
2023-05-02T16:46:06.322Z,90.90
2023-05-02T16:48:34.755Z,91.10
2023-05-02T16:51:04.235Z,91.20
2023-05-02T16:53:31.946Z,91.20
2023-05-02T16:55:59.901Z,91.00
2023-05-02T16:58:29.320Z,91.10
2023-05-02T17:00:57.346Z,91.00
2023-05-02T17:03:24.584Z,91.00
2023-05-02T17:05:51.842Z,91.00
2023-05-02T17:08:19.039Z,91.00
2023-05-02T17:10:50.466Z,91.00
2023-05-02T17:13:18.013Z,91.10
2023-05-02T17:15:45.480Z,91.20
2023-05-02T17:18:12.904Z,91.40
2023-05-02T17:20:41.352Z,91.40
2023-05-02T17:23:10.406Z,91.60
2023-05-02T17:25:48.435Z,91.50
2023-05-02T17:28:16.172Z,91.50
2023-05-02T17:30:43.868Z,91.50
2023-05-02T17:33:11.876Z,91.60
2023-05-02T17:35:39.112Z,91.60
2023-05-02T17:38:06.528Z,91.70
2023-05-02T17:40:35.345Z,91.70
2023-05-02T17:43:03.394Z,91.70
2023-05-02T17:45:30.764Z,91.60
2023-05-02T17:48:02.138Z,91.60
2023-05-02T17:50:31.288Z,91.40
2023-05-02T17:52:59.543Z,91.40
2023-05-02T17:55:26.675Z,91.40
2023-05-02T17:57:54.056Z,91.50
2023-05-02T18:00:24.150Z,91.60
2023-05-02T18:02:51.490Z,91.70
2023-05-02T18:05:18.853Z,91.90
2023-05-02T18:07:49.812Z,92.00
2023-05-02T18:10:17.792Z,92.10
2023-05-02T18:12:45.197Z,92.20
2023-05-02T18:15:12.458Z,92.20
2023-05-02T18:17:39.874Z,92.30
2023-05-02T18:20:07.662Z,92.40
2023-05-02T18:22:34.945Z,92.50
2023-05-02T18:25:02.550Z,92.60
2023-05-02T18:27:30.680Z,92.60
2023-05-02T18:29:57.881Z,92.70
2023-05-02T18:32:26.310Z,92.80
2023-05-02T18:34:53.545Z,92.90
2023-05-02T18:37:22.197Z,93.00
2023-05-02T18:39:49.562Z,93.10
2023-05-02T18:42:16.842Z,93.20
2023-05-02T18:44:44.561Z,93.20
2023-05-02T18:47:15.746Z,93.30
2023-05-02T18:49:44.543Z,93.30
2023-05-02T18:52:12.214Z,93.30
2023-05-02T18:54:39.670Z,93.40
2023-05-02T18:57:06.986Z,93.40
2023-05-02T18:59:34.360Z,93.50
2023-05-02T19:02:01.704Z,93.50
2023-05-02T19:04:33.879Z,93.60
2023-05-02T19:07:01.146Z,93.70
2023-05-02T19:09:28.412Z,93.80
2023-05-02T19:11:55.824Z,93.80
2023-05-02T19:14:23.466Z,93.90
2023-05-02T19:17:10.913Z,94.00
2023-05-02T19:19:40.870Z,94.20
2023-05-02T19:22:10.210Z,94.20
2023-05-02T19:24:37.564Z,94.30
2023-05-02T19:27:07.974Z,94.40
2023-05-02T19:29:36.008Z,94.40
2023-05-02T19:32:04.055Z,94.40
2023-05-02T19:34:32.508Z,94.50
2023-05-02T19:36:59.905Z,94.50
2023-05-02T19:39:29.063Z,94.60
2023-05-02T19:41:57.071Z,94.60
2023-05-02T19:44:24.448Z,94.80
2023-05-02T19:46:52.147Z,94.90
2023-05-02T19:49:19.531Z,95.00
2023-05-02T19:51:46.863Z,95.20
2023-05-02T19:54:15.175Z,95.30
2023-05-02T19:56:43.648Z,95.40
2023-05-02T19:59:10.790Z,95.60
2023-05-02T20:01:38.321Z,96.00
2023-05-02T20:04:06.113Z,95.80
2023-05-02T20:06:33.670Z,95.90
2023-05-02T20:09:01.044Z,96.10
2023-05-02T20:11:28.503Z,96.20
2023-05-02T20:13:55.961Z,96.30
2023-05-02T20:16:23.299Z,96.40
2023-05-02T20:18:50.565Z,96.60
2023-05-02T20:21:17.742Z,96.70
2023-05-02T20:23:45.432Z,96.80
2023-05-02T20:26:14.315Z,96.90
2023-05-02T20:28:41.610Z,97.00
2023-05-02T20:31:08.995Z,97.10
2023-05-02T20:33:44.434Z,97.20
2023-05-02T20:36:13.585Z,97.30
2023-05-02T20:38:43.043Z,97.50
2023-05-02T20:41:13.079Z,97.50
2023-05-02T20:43:41.858Z,97.60
2023-05-02T20:46:11.131Z,97.70
2023-05-02T20:48:38.596Z,97.80
2023-05-02T20:51:05.923Z,97.80
2023-05-02T20:53:33.619Z,97.90
2023-05-02T20:56:01.185Z,98.00
2023-05-02T20:58:28.449Z,98.00
2023-05-02T21:00:55.848Z,98.10
2023-05-02T21:03:23.411Z,98.20
2023-05-02T21:05:59.816Z,98.20
2023-05-02T21:08:27.541Z,98.50
2023-05-02T21:10:54.729Z,98.40
2023-05-02T21:13:22.543Z,98.50
2023-05-02T21:15:49.695Z,98.70
2023-05-02T21:18:16.926Z,98.80
2023-05-02T21:20:44.587Z,98.80
2023-05-02T21:23:12.321Z,98.90
2023-05-02T21:25:39.572Z,98.90
2023-05-02T21:28:06.974Z,99.00
2023-05-02T21:30:37.130Z,99.00
2023-05-02T21:33:04.612Z,99.10
2023-05-02T21:35:34.318Z,99.10
2023-05-02T21:38:01.929Z,99.20
2023-05-02T21:40:31.930Z,99.30
2023-05-02T21:42:59.279Z,99.30
2023-05-02T21:45:27.032Z,99.40
2023-05-02T21:47:54.704Z,99.50
2023-05-02T21:50:22.088Z,99.40
2023-05-02T21:52:49.656Z,99.50
2023-05-02T21:55:17.177Z,99.60
2023-05-02T21:57:44.605Z,99.70
2023-05-02T22:00:13.379Z,99.90
2023-05-02T22:02:40.913Z,99.80
2023-05-02T22:05:08.839Z,99.90
2023-05-02T22:07:37.227Z,99.90
2023-05-02T22:10:04.947Z,99.90
2023-05-02T22:12:32.552Z,99.90
2023-05-02T22:14:59.932Z,99.90
2023-05-02T22:17:27.562Z,99.90
2023-05-02T22:19:55.541Z,99.90
2023-05-02T22:22:22.959Z,99.90
2023-05-02T22:24:50.408Z,99.90
2023-05-02T22:27:17.683Z,99.90
2023-05-02T22:29:44.983Z,99.90
2023-05-02T22:32:12.181Z,99.90
2023-05-02T22:34:39.405Z,99.90
2023-05-02T22:37:06.650Z,99.90
2023-05-02T22:39:34.420Z,99.90
2023-05-02T22:42:01.781Z,99.90
2023-05-02T22:44:29.089Z,99.90
2023-05-02T22:46:56.759Z,99.90
2023-05-02T22:49:24.007Z,99.90
2023-05-02T22:51:52.249Z,99.90
2023-05-02T22:54:19.685Z,99.90
2023-05-02T22:56:46.790Z,99.90
2023-05-02T22:59:15.697Z,99.90
2023-05-02T23:01:42.810Z,99.90
2023-05-02T23:04:10.399Z,99.90
2023-05-02T23:06:37.621Z,99.90
2023-05-02T23:09:04.934Z,99.90
2023-05-02T23:11:32.156Z,99.90
2023-05-02T23:13:59.651Z,99.90
2023-05-02T23:16:27.216Z,99.90
2023-05-02T23:18:55.266Z,99.90
2023-05-02T23:21:22.472Z,99.90
2023-05-02T23:23:49.726Z,99.90
2023-05-02T23:26:17.004Z,99.90
2023-05-02T23:28:44.525Z,99.90
2023-05-02T23:31:13.178Z,99.90
2023-05-02T23:33:40.594Z,99.90
2023-05-02T23:36:08.491Z,99.90
2023-05-02T23:38:36.319Z,99.90
2023-05-02T23:41:03.713Z,99.90
2023-05-02T23:43:30.848Z,99.90
2023-05-02T23:45:58.428Z,99.90
2023-05-02T23:48:25.565Z,99.90
2023-05-02T23:50:53.045Z,99.90
2023-05-02T23:53:20.242Z,99.90
2023-05-02T23:55:47.527Z,99.90
2023-05-02T23:58:14.777Z,99.90
